Time;durP1;ratioP1;P1;durP2;ratioP2;P2;SDS_P1;SDS_P2;PMS_P1;PMS_P2;Temp;Humidity;BMP_temperature;BMP_pressure;BME280_temperature;BME280_humidity;BME280_pressure;Samples;Min_cycle;Max_cycle;Signal;HPM_P1;HPM_P2
2024/01/12 00:00:44;;;;;;;58.65;26.60;;;-0.50;99.90;;;;;;4939953;29;20070;-64
2024/01/12 00:03:10;;;;;;;56.25;25.67;;;-0.50;99.90;;;;;;4948496;28;20483;-64
2024/01/12 00:05:36;;;;;;;59.42;26.80;;;-0.50;99.90;;;;;;4978995;28;20027;-64
2024/01/12 00:08:01;;;;;;;56.42;26.42;;;-0.50;99.90;;;;;;4978624;28;20027;-64
2024/01/12 00:10:27;;;;;;;56.88;27.63;;;-0.50;99.90;;;;;;4978416;28;20446;-64
2024/01/12 00:12:53;;;;;;;59.83;28.80;;;-0.50;99.90;;;;;;4960853;28;20457;-64
2024/01/12 00:15:18;;;;;;;62.47;27.67;;;-0.50;99.90;;;;;;4960551;28;20035;-64
2024/01/12 00:17:44;;;;;;;57.47;27.13;;;-0.30;99.90;;;;;;4960358;28;20110;-64
2024/01/12 00:20:10;;;;;;;57.88;28.38;;;-0.50;99.90;;;;;;4960377;28;20058;-64
2024/01/12 00:22:36;;;;;;;61.33;27.60;;;-0.50;99.90;;;;;;4960123;28;20031;-64
2024/01/12 00:25:02;;;;;;;66.15;28.17;;;-0.30;99.90;;;;;;4960097;28;20034;-64
2024/01/12 00:27:27;;;;;;;64.32;30.83;;;-0.50;99.90;;;;;;4977658;28;20081;-64
2024/01/12 00:29:53;;;;;;;57.40;26.63;;;-0.50;99.90;;;;;;4977525;28;20035;-64
2024/01/12 00:32:18;;;;;;;65.80;30.13;;;-0.50;99.90;;;;;;4960012;28;20030;-64
2024/01/12 00:34:44;;;;;;;61.80;28.10;;;-0.60;99.90;;;;;;4977056;28;20077;-64
2024/01/12 00:37:10;;;;;;;60.88;26.52;;;-0.60;99.90;;;;;;4959831;28;20031;-64
2024/01/12 00:39:36;;;;;;;62.33;28.00;;;-0.20;99.90;;;;;;4977667;28;20054;-64
2024/01/12 00:42:03;;;;;;;60.25;28.15;;;-0.60;99.90;;;;;;4960497;28;20109;-64
2024/01/12 00:44:28;;;;;;;67.60;29.08;;;-0.60;99.90;;;;;;4977934;28;20037;-64
2024/01/12 00:46:55;;;;;;;60.60;28.17;;;-0.70;99.90;;;;;;4960942;28;20457;-64
2024/01/12 00:49:21;;;;;;;61.58;27.83;;;-0.60;99.90;;;;;;4977123;28;20023;-64
2024/01/12 00:51:47;;;;;;;64.53;27.95;;;-0.60;99.90;;;;;;4977332;28;20102;-64
2024/01/12 00:54:13;;;;;;;66.60;29.67;;;-0.60;99.90;;;;;;4976953;28;20133;-64
2024/01/12 00:56:38;;;;;;;58.08;27.17;;;-0.70;99.90;;;;;;4976946;28;20522;-64
2024/01/12 00:59:06;;;;;;;58.47;26.95;;;-0.70;99.90;;;;;;4976843;28;20426;-63
2024/01/12 01:01:32;;;;;;;59.33;26.90;;;-0.40;99.90;;;;;;4959598;28;20050;-64
2024/01/12 01:03:59;;;;;;;61.28;28.63;;;-0.70;99.90;;;;;;4959156;28;20051;-64
2024/01/12 01:06:24;;;;;;;62.28;28.10;;;-0.70;99.90;;;;;;4976985;28;20122;-64
2024/01/12 01:08:51;;;;;;;62.47;27.80;;;-0.70;99.90;;;;;;4976691;28;20062;-64
2024/01/12 01:11:17;;;;;;;61.95;28.40;;;-0.60;99.90;;;;;;4959272;28;20037;-64
2024/01/12 01:13:43;;;;;;;64.30;28.58;;;-0.70;99.90;;;;;;4976622;28;20098;-64
2024/01/12 01:16:09;;;;;;;63.75;29.15;;;-0.70;99.90;;;;;;4976518;28;20035;-64
2024/01/12 01:18:35;;;;;;;64.43;28.55;;;-0.70;99.90;;;;;;4976580;28;20030;-64
2024/01/12 01:21:01;;;;;;;66.45;29.67;;;-0.70;99.90;;;;;;4976476;28;20023;-64
2024/01/12 01:23:27;;;;;;;62.17;26.75;;;-0.70;99.90;;;;;;4976217;28;20161;-64
2024/01/12 01:25:55;;;;;;;59.78;26.42;;;-0.80;99.90;;;;;;4976689;28;20031;-64
2024/01/12 01:28:21;;;;;;;60.65;29.85;;;-0.80;99.90;;;;;;4976457;28;20375;-64
2024/01/12 01:30:47;;;;;;;58.05;27.27;;;-0.70;99.90;;;;;;4976248;28;20039;-64
2024/01/12 01:33:13;;;;;;;59.28;27.50;;;-0.80;99.90;;;;;;4976310;28;20105;-64
2024/01/12 01:35:39;;;;;;;66.45;28.92;;;-0.80;99.90;;;;;;4976178;28;20089;-64
2024/01/12 01:38:05;;;;;;;58.35;27.15;;;-0.80;99.90;;;;;;4975945;28;20377;-64
2024/01/12 01:40:30;;;;;;;64.20;27.63;;;-0.80;99.90;;;;;;4959007;28;20033;-64
2024/01/12 01:42:56;;;;;;;58.38;27.27;;;-0.80;99.90;;;;;;4958615;28;20483;-64
2024/01/12 01:45:21;;;;;;;70.50;28.85;;;-0.70;99.90;;;;;;4975958;28;20042;-64
2024/01/12 01:47:47;;;;;;;55.38;26.50;;;-0.80;99.90;;;;;;4975566;28;20031;-64
2024/01/12 01:50:15;;;;;;;63.33;28.88;;;-0.80;99.90;;;;;;4975932;28;20066;-64
2024/01/12 01:52:44;;;;;;;72.00;28.67;;;-0.90;99.90;;;;;;4958420;28;20055;-64
2024/01/12 01:55:12;;;;;;;65.18;27.85;;;-0.90;99.90;;;;;;4958487;28;20098;-64
2024/01/12 01:57:39;;;;;;;60.90;27.77;;;-0.90;99.90;;;;;;4975806;28;20034;-64
2024/01/12 02:00:05;;;;;;;60.42;27.23;;;-0.80;99.90;;;;;;4975697;28;20038;-64
2024/01/12 02:02:31;;;;;;;60.53;28.58;;;-0.90;99.90;;;;;;4975464;28;20027;-64
2024/01/12 02:04:59;;;;;;;66.60;27.85;;;-0.80;99.90;;;;;;4975979;28;20070;-64
2024/01/12 02:07:25;;;;;;;62.10;27.80;;;-0.90;99.90;;;;;;4975596;28;20031;-64
2024/01/12 02:09:51;;;;;;;61.50;27.70;;;-0.90;99.90;;;;;;4958396;28;20030;-64
2024/01/12 02:12:16;;;;;;;63.80;28.27;;;-0.80;99.90;;;;;;4975587;28;20029;-64
2024/01/12 02:14:42;;;;;;;56.35;26.80;;;-0.90;99.90;;;;;;4975405;28;20030;-64
2024/01/12 02:17:08;;;;;;;65.00;28.63;;;-0.90;99.90;;;;;;4975449;28;20419;-64
2024/01/12 02:19:34;;;;;;;60.95;27.42;;;-0.90;99.90;;;;;;4975083;28;20023;-64
2024/01/12 02:21:59;;;;;;;59.80;26.58;;;-1.00;99.90;;;;;;4958022;28;20058;-64
2024/01/12 02:24:25;;;;;;;61.63;27.63;;;-1.00;99.90;;;;;;4975647;28;20035;-63
2024/01/12 02:26:51;;;;;;;62.35;28.13;;;-1.00;99.90;;;;;;4975033;28;20034;-64
2024/01/12 02:29:17;;;;;;;65.45;28.88;;;-1.00;99.90;;;;;;4957901;28;20379;-64
2024/01/12 02:31:43;;;;;;;62.25;27.98;;;-1.00;99.90;;;;;;4975233;28;20033;-64
2024/01/12 02:34:10;;;;;;;61.70;29.20;;;-1.00;99.90;;;;;;4975375;28;20134;-64
2024/01/12 02:36:36;;;;;;;58.05;27.42;;;-1.00;99.90;;;;;;4974908;28;20035;-64
2024/01/12 02:39:01;;;;;;;64.45;28.60;;;-1.00;99.90;;;;;;4975186;28;20069;-64
2024/01/12 02:41:27;;;;;;;63.28;28.80;;;-1.00;99.90;;;;;;4958396;28;20038;-64
2024/01/12 02:43:53;;;;;;;60.50;26.92;;;-1.10;99.90;;;;;;4957890;28;20079;-64
2024/01/12 02:46:18;;;;;;;63.25;28.88;;;-1.10;99.90;;;;;;4957667;28;20033;-64
2024/01/12 02:48:44;;;;;;;65.95;28.75;;;-1.10;99.90;;;;;;4958290;28;20026;-64
2024/01/12 02:51:10;;;;;;;64.80;28.58;;;-1.20;99.90;;;;;;4975068;28;20026;-64
2024/01/12 02:53:35;;;;;;;59.30;27.67;;;-1.20;99.90;;;;;;4957669;28;20078;-64
2024/01/12 02:56:01;;;;;;;66.13;29.60;;;-1.20;99.90;;;;;;4975063;28;20485;-64
2024/01/12 02:58:27;;;;;;;63.05;28.58;;;-1.10;99.90;;;;;;4976467;28;20019;-64
2024/01/12 03:00:52;;;;;;;67.95;28.65;;;-1.10;99.90;;;;;;4979038;28;20097;-64
2024/01/12 03:03:19;;;;;;;67.43;29.10;;;-1.20;99.90;;;;;;4978673;28;20078;-64
2024/01/12 03:05:45;;;;;;;70.03;29.58;;;-1.20;99.90;;;;;;4979195;28;20471;-64
2024/01/12 03:08:10;;;;;;;69.95;29.25;;;-1.20;99.90;;;;;;4979723;28;20027;-63
2024/01/12 03:10:37;;;;;;;62.97;28.35;;;-1.20;99.90;;;;;;4962326;28;20027;-64
2024/01/12 03:13:03;;;;;;;69.82;30.20;;;-1.20;99.90;;;;;;4978760;28;20463;-64
2024/01/12 03:15:28;;;;;;;66.05;27.90;;;-1.20;99.90;;;;;;4978460;28;20031;-64
2024/01/12 03:17:56;;;;;;;62.15;27.65;;;-1.20;99.90;;;;;;4978919;28;20053;-64
2024/01/12 03:20:22;;;;;;;67.97;28.67;;;-1.20;99.90;;;;;;4961892;28;20374;-64
2024/01/12 03:22:47;;;;;;;72.07;30.50;;;-1.10;99.90;;;;;;4978963;28;20031;-64
2024/01/12 03:25:13;;;;;;;62.20;27.23;;;-1.10;99.90;;;;;;4978893;28;20117;-64
2024/01/12 03:27:39;;;;;;;61.75;27.95;;;-1.10;99.90;;;;;;4978545;28;20058;-64
2024/01/12 03:30:05;;;;;;;65.10;28.17;;;-1.10;99.90;;;;;;4961172;28;20412;-64
2024/01/12 03:32:33;;;;;;;63.50;27.35;;;-1.10;99.90;;;;;;4961073;28;20034;-64
2024/01/12 03:34:59;;;;;;;70.55;29.38;;;-1.10;99.90;;;;;;4961052;28;20031;-64
2024/01/12 03:37:25;;;;;;;73.75;31.45;;;-1.10;99.90;;;;;;4979347;28;20038;-64
2024/01/12 03:39:50;;;;;;;62.20;28.77;;;-1.10;99.90;;;;;;4978836;28;20077;-64
2024/01/12 03:42:16;;;;;;;72.20;29.70;;;-1.10;99.90;;;;;;4961515;28;20475;-64
2024/01/12 03:44:42;;;;;;;68.55;30.08;;;-1.10;99.90;;;;;;4962153;28;20031;-70
2024/01/12 03:47:08;;;;;;;70.95;31.27;;;-1.10;99.90;;;;;;4979977;28;20030;-66
2024/01/12 03:49:33;;;;;;;67.43;29.80;;;-1.10;99.90;;;;;;4980024;28;20077;-64
2024/01/12 03:51:59;;;;;;;65.68;28.92;;;-1.10;99.90;;;;;;4962762;28;20146;-64
2024/01/12 03:54:24;;;;;;;67.00;29.35;;;-1.10;99.90;;;;;;4980612;28;20157;-64
2024/01/12 03:56:50;;;;;;;68.20;30.02;;;-1.20;99.90;;;;;;4979830;28;20474;-64
2024/01/12 03:59:17;;;;;;;71.60;30.98;;;-1.20;99.90;;;;;;4978266;28;20497;-64
2024/01/12 04:01:43;;;;;;;60.15;29.13;;;-1.20;99.90;;;;;;4978007;28;20378;-64
2024/01/12 04:04:09;;;;;;;70.95;30.23;;;-1.20;99.90;;;;;;4960126;28;20509;-64
2024/01/12 04:06:36;;;;;;;66.97;28.73;;;-1.20;99.90;;;;;;4960242;28;20549;-64
2024/01/12 04:09:02;;;;;;;68.85;29.58;;;-1.20;99.90;;;;;;4977850;28;20034;-64
2024/01/12 04:11:28;;;;;;;72.75;30.88;;;-1.20;99.90;;;;;;4977007;28;20063;-64
2024/01/12 04:13:54;;;;;;;68.85;29.73;;;-1.20;99.90;;;;;;4977678;28;20046;-64
2024/01/12 04:16:20;;;;;;;64.38;29.02;;;-1.20;99.90;;;;;;4977372;28;20537;-64
2024/01/12 04:18:46;;;;;;;71.38;29.95;;;-1.20;99.90;;;;;;4977654;28;20110;-64
2024/01/12 04:21:13;;;;;;;65.32;27.70;;;-1.20;99.90;;;;;;4977305;28;20121;-64
2024/01/12 04:23:39;;;;;;;68.03;29.38;;;-1.20;99.90;;;;;;4977509;28;20491;-64
2024/01/12 04:26:08;;;;;;;64.45;29.17;;;-1.10;99.90;;;;;;4977404;28;20042;-64
2024/01/12 04:28:33;;;;;;;74.07;31.05;;;-1.20;99.90;;;;;;4977590;28;20054;-64
2024/01/12 04:31:02;;;;;;;66.15;31.15;;;-1.20;99.90;;;;;;4960071;28;20091;-64
2024/01/12 04:33:29;;;;;;;70.35;30.52;;;-1.30;99.90;;;;;;4977293;28;20097;-64
2024/01/12 04:35:54;;;;;;;67.18;30.50;;;-1.20;99.90;;;;;;4977342;28;20039;-64
2024/01/12 04:38:20;;;;;;;69.47;29.60;;;-1.20;99.90;;;;;;4977588;28;20058;-64
2024/01/12 04:40:46;;;;;;;62.50;29.17;;;-1.20;99.90;;;;;;4959894;28;20363;-63
2024/01/12 04:43:11;;;;;;;80.50;31.42;;;-1.30;99.90;;;;;;4977210;28;20034;-64
2024/01/12 04:45:37;;;;;;;68.32;29.45;;;-1.30;99.90;;;;;;4977134;28;20169;-63
2024/01/12 04:48:03;;;;;;;69.05;30.92;;;-1.30;99.90;;;;;;4976859;28;20037;-64
2024/01/12 04:50:28;;;;;;;78.50;31.02;;;-1.30;99.90;;;;;;4960059;28;20545;-64
2024/01/12 04:52:54;;;;;;;73.95;30.98;;;-1.30;99.90;;;;;;4976969;28;20042;-64
2024/01/12 04:55:20;;;;;;;65.65;30.95;;;-1.30;99.90;;;;;;4976932;28;20033;-64
2024/01/12 04:57:46;;;;;;;77.65;31.15;;;-1.30;99.90;;;;;;4976581;28;20382;-64
2024/01/12 05:00:12;;;;;;;65.90;30.25;;;-1.30;99.90;;;;;;4976901;28;20027;-64
2024/01/12 05:02:40;;;;;;;68.55;30.02;;;-1.40;99.90;;;;;;4959262;28;20470;-64
2024/01/12 05:05:07;;;;;;;65.13;28.52;;;-1.30;99.90;;;;;;4976878;28;20089;-64
2024/01/12 05:07:33;;;;;;;71.05;28.38;;;-1.30;99.90;;;;;;4959282;28;20038;-64
2024/01/12 05:09:59;;;;;;;67.70;30.83;;;-1.30;99.90;;;;;;4976958;28;20459;-64
2024/01/12 05:12:25;;;;;;;71.43;30.02;;;-1.30;99.90;;;;;;4976354;28;20019;-64
2024/01/12 05:14:51;;;;;;;65.15;29.65;;;-1.30;99.90;;;;;;4959679;28;20463;-63
2024/01/12 05:17:16;;;;;;;79.18;31.45;;;-1.30;99.90;;;;;;4959317;28;20438;-64
2024/01/12 05:19:42;;;;;;;71.57;29.55;;;-1.30;99.90;;;;;;4976515;28;20034;-64
2024/01/12 05:22:08;;;;;;;69.65;29.95;;;-1.30;99.90;;;;;;4975414;28;20058;-64
2024/01/12 05:24:33;;;;;;;69.97;30.85;;;-1.30;99.90;;;;;;4959147;28;20427;-65
2024/01/12 05:26:59;;;;;;;78.82;30.55;;;-1.30;99.90;;;;;;4976272;28;20109;-65
2024/01/12 05:29:25;;;;;;;76.32;30.98;;;-1.40;99.90;;;;;;4958995;28;20368;-65
2024/01/12 05:31:51;;;;;;;68.90;28.67;;;-1.30;99.90;;;;;;4958926;28;20031;-64
2024/01/12 05:34:16;;;;;;;71.05;30.15;;;-1.30;99.90;;;;;;4976295;28;20035;-64
2024/01/12 05:36:42;;;;;;;67.57;29.23;;;-1.30;99.90;;;;;;4958759;28;20030;-65
2024/01/12 05:39:08;;;;;;;69.55;29.88;;;-1.30;99.90;;;;;;4976133;28;20027;-65
2024/01/12 05:41:34;;;;;;;71.90;29.83;;;-1.30;99.90;;;;;;4976093;28;20027;-65
2024/01/12 05:44:00;;;;;;;65.68;30.20;;;-1.40;99.90;;;;;;4976053;28;20039;-64
2024/01/12 05:46:26;;;;;;;67.88;30.17;;;-1.40;99.90;;;;;;4976026;28;20501;-65
2024/01/12 05:48:51;;;;;;;74.88;33.55;;;-1.40;99.90;;;;;;4958625;28;20054;-64
2024/01/12 05:51:17;;;;;;;70.40;30.02;;;-1.40;99.90;;;;;;4975939;28;20033;-64
2024/01/12 05:53:44;;;;;;;74.60;31.63;;;-1.40;99.90;;;;;;4975826;28;20038;-64
2024/01/12 05:56:09;;;;;;;76.45;31.48;;;-1.40;99.90;;;;;;4976163;28;20034;-65
2024/01/12 05:58:35;;;;;;;74.18;32.03;;;-1.40;99.90;;;;;;4975538;28;20027;-65
2024/01/12 06:01:01;;;;;;;68.95;30.98;;;-1.40;99.90;;;;;;4976064;28;20059;-65
2024/01/12 06:03:29;;;;;;;75.78;33.35;;;-1.40;99.90;;;;;;4957949;28;20062;-65
2024/01/12 06:05:55;;;;;;;82.47;33.63;;;-1.50;99.90;;;;;;4975345;28;20443;-65
2024/01/12 06:08:21;;;;;;;80.00;32.80;;;-1.50;99.90;;;;;;4975923;28;20031;-65
2024/01/12 06:10:47;;;;;;;74.28;31.88;;;-1.50;99.90;;;;;;4975542;28;20090;-65
2024/01/12 06:13:13;;;;;;;75.25;30.98;;;-1.50;99.90;;;;;;4958208;28;20038;-65
2024/01/12 06:15:39;;;;;;;79.93;32.20;;;-1.50;99.90;;;;;;4975744;28;20114;-65
2024/01/12 06:18:05;;;;;;;83.97;34.15;;;-1.50;99.90;;;;;;4975460;28;20061;-65
2024/01/12 06:20:30;;;;;;;81.30;33.95;;;-1.50;99.90;;;;;;4975446;28;20459;-65
2024/01/12 06:22:57;;;;;;;86.20;34.55;;;-1.50;99.90;;;;;;4975462;28;20482;-65
2024/01/12 06:25:23;;;;;;;94.78;37.90;;;-1.50;99.90;;;;;;4975358;28;20082;-65
2024/01/12 06:27:49;;;;;;;81.10;33.95;;;-1.50;99.90;;;;;;4975467;28;20019;-65
2024/01/12 06:30:16;;;;;;;79.63;32.28;;;-1.50;99.90;;;;;;4958041;28;20030;-65
2024/01/12 06:32:42;;;;;;;78.90;34.30;;;-1.50;99.90;;;;;;4974936;28;20031;-65
2024/01/12 06:35:09;;;;;;;90.28;36.60;;;-1.40;99.90;;;;;;4974947;28;20386;-65
2024/01/12 06:37:35;;;;;;;80.55;32.75;;;-1.50;99.90;;;;;;4974955;28;20026;-65
2024/01/12 06:40:01;;;;;;;78.30;35.33;;;-1.50;99.90;;;;;;4975060;28;20077;-65
2024/01/12 06:42:28;;;;;;;76.75;31.67;;;-1.50;99.90;;;;;;4975627;28;20034;-65
2024/01/12 06:44:54;;;;;;;77.90;31.98;;;-1.50;99.90;;;;;;4975969;28;20062;-65
2024/01/12 06:47:19;;;;;;;77.00;32.38;;;-1.40;99.90;;;;;;4975502;28;20039;-65
2024/01/12 06:49:45;;;;;;;76.57;32.03;;;-1.50;99.90;;;;;;4975154;28;20090;-65
2024/01/12 06:52:12;;;;;;;85.20;33.88;;;-1.40;99.90;;;;;;4975018;28;20041;-65
2024/01/12 06:54:43;;;;;;;79.65;32.35;;;-1.40;99.90;;;;;;4957643;28;20031;-69
2024/01/12 06:57:08;;;;;;;86.43;31.80;;;-1.40;99.90;;;;;;4975150;28;20038;-65
2024/01/12 06:59:34;;;;;;;82.82;31.95;;;-1.40;99.90;;;;;;4957629;28;20031;-65
2024/01/12 07:01:59;;;;;;;75.97;32.20;;;-1.40;99.90;;;;;;4974644;28;20031;-65
2024/01/12 07:04:25;;;;;;;69.25;31.33;;;-1.40;99.90;;;;;;4974337;28;20160;-65
2024/01/12 07:06:52;;;;;;;76.03;31.15;;;-1.40;99.90;;;;;;4974660;28;20038;-65
2024/01/12 07:09:21;;;;;;;72.20;29.50;;;-1.40;99.90;;;;;;4975217;28;20026;-69
2024/01/12 07:11:47;;;;;;;69.72;30.10;;;-1.40;99.90;;;;;;4975216;28;20026;-64
2024/01/12 07:14:16;;;;;;;76.90;33.17;;;-1.40;99.90;;;;;;4975100;28;20055;-65
2024/01/12 07:16:42;;;;;;;72.78;30.63;;;-1.30;99.90;;;;;;4975430;28;20054;-65
2024/01/12 07:19:08;;;;;;;75.32;31.33;;;-1.30;99.90;;;;;;4974713;28;20034;-65
2024/01/12 07:21:34;;;;;;;77.38;32.00;;;-1.30;99.90;;;;;;4974966;28;20035;-65
2024/01/12 07:24:01;;;;;;;69.13;29.15;;;-1.30;99.90;;;;;;4974711;28;20034;-65
2024/01/12 07:26:26;;;;;;;75.90;31.48;;;-1.20;99.90;;;;;;4975170;28;20352;-65
2024/01/12 07:28:52;;;;;;;71.10;29.08;;;-1.30;99.90;;;;;;4975154;28;20038;-65
2024/01/12 07:31:18;;;;;;;74.35;31.25;;;-1.30;99.90;;;;;;4974758;28;20034;-65
2024/01/12 07:33:43;;;;;;;68.10;29.17;;;-1.30;99.90;;;;;;4957472;28;20042;-65
2024/01/12 07:36:09;;;;;;;71.18;29.25;;;-1.30;99.90;;;;;;4957544;28;20022;-65
2024/01/12 07:38:35;;;;;;;69.57;29.10;;;-1.30;99.90;;;;;;4957232;28;20027;-65
2024/01/12 07:41:01;;;;;;;70.70;31.23;;;-0.90;99.90;;;;;;4974548;28;20058;-65
2024/01/12 07:43:33;;;;;;;70.18;29.95;;;-1.20;99.90;;;;;;4974595;28;20094;-65
2024/01/12 07:45:59;;;;;;;70.50;30.55;;;-1.20;99.90;;;;;;4976945;28;20030;-65
2024/01/12 07:48:25;;;;;;;72.10;30.55;;;-1.20;99.90;;;;;;4978247;28;20027;-65
2024/01/12 07:50:51;;;;;;;67.80;28.83;;;-1.20;99.90;;;;;;4978116;28;20110;-65
2024/01/12 07:53:17;;;;;;;71.25;29.65;;;-1.10;99.90;;;;;;4978307;28;20141;-65
2024/01/12 07:55:42;;;;;;;70.03;28.88;;;-1.10;99.90;;;;;;4978226;28;20106;-65
2024/01/12 07:58:08;;;;;;;69.00;29.13;;;-1.10;99.90;;;;;;4978030;28;20095;-65
2024/01/12 08:00:34;;;;;;;72.70;30.13;;;-1.00;99.90;;;;;;4978031;28;20497;-65
2024/01/12 08:02:59;;;;;;;67.50;31.35;;;-1.10;99.90;;;;;;4960470;28;20395;-65
2024/01/12 08:05:25;;;;;;;72.88;29.58;;;-1.10;99.90;;;;;;4960908;28;20477;-65
2024/01/12 08:07:51;;;;;;;65.88;29.15;;;-1.10;99.90;;;;;;4977811;28;20378;-65
2024/01/12 08:10:18;;;;;;;69.97;29.13;;;-1.10;99.90;;;;;;4960147;28;20026;-65
2024/01/12 08:12:47;;;;;;;67.88;29.95;;;-1.10;99.90;;;;;;4977666;28;20027;-65
2024/01/12 08:15:13;;;;;;;75.82;28.98;;;-1.10;99.90;;;;;;4960345;28;20031;-65
2024/01/12 08:17:41;;;;;;;69.90;28.50;;;-1.10;99.90;;;;;;4977422;28;20476;-65
2024/01/12 08:20:07;;;;;;;69.03;29.25;;;-1.10;99.90;;;;;;4977637;28;20462;-65
2024/01/12 08:22:33;;;;;;;67.57;29.65;;;-1.10;99.90;;;;;;4977613;28;20082;-65
2024/01/12 08:24:59;;;;;;;72.68;29.95;;;-1.10;99.90;;;;;;4977645;28;20034;-65
2024/01/12 08:27:25;;;;;;;65.25;28.92;;;-1.10;99.90;;;;;;4960253;28;20031;-65
2024/01/12 08:29:51;;;;;;;70.13;29.48;;;-1.10;99.90;;;;;;4960798;28;20481;-65
2024/01/12 08:32:16;;;;;;;63.60;26.98;;;-1.00;99.90;;;;;;4977124;28;20023;-65
2024/01/12 08:34:42;;;;;;;64.03;28.00;;;-1.00;99.90;;;;;;4959959;28;20477;-65
2024/01/12 08:37:08;;;;;;;69.68;29.20;;;-1.00;99.90;;;;;;4977323;28;20033;-65
2024/01/12 08:39:36;;;;;;;66.32;29.45;;;-1.00;99.90;;;;;;4977164;28;20470;-65
2024/01/12 08:42:02;;;;;;;63.78;28.83;;;-1.00;99.90;;;;;;4977180;28;20027;-65
2024/01/12 08:44:28;;;;;;;69.85;28.70;;;-1.00;99.90;;;;;;4977496;28;20467;-65
2024/01/12 08:46:54;;;;;;;66.78;28.00;;;-0.90;99.90;;;;;;4977485;28;20073;-65
2024/01/12 08:49:22;;;;;;;65.53;28.33;;;-1.00;99.90;;;;;;4976927;28;20026;-65
2024/01/12 08:51:48;;;;;;;61.22;28.92;;;-0.90;99.90;;;;;;4960090;28;20110;-65
2024/01/12 08:54:14;;;;;;;64.97;29.35;;;-0.90;99.90;;;;;;4977263;28;20089;-65
2024/01/12 08:56:41;;;;;;;67.25;27.85;;;-0.80;99.90;;;;;;4977546;28;20117;-68
2024/01/12 08:59:08;;;;;;;65.97;28.75;;;-0.90;99.90;;;;;;4977725;28;20030;-66
2024/01/12 09:01:34;;;;;;;70.13;30.70;;;-0.90;99.90;;;;;;4977481;28;20031;-65
2024/01/12 09:04:01;;;;;;;74.53;30.20;;;-0.90;99.90;;;;;;4959424;28;20406;-65
2024/01/12 09:06:27;;;;;;;69.53;30.05;;;-0.90;99.90;;;;;;4977366;28;20038;-65
2024/01/12 09:08:53;;;;;;;59.55;27.80;;;-0.90;99.90;;;;;;4977210;28;20023;-65
2024/01/12 09:11:19;;;;;;;66.00;30.27;;;-0.90;99.90;;;;;;4977353;28;20059;-65
2024/01/12 09:13:44;;;;;;;63.88;29.10;;;-0.90;99.90;;;;;;4976981;28;20027;-65
2024/01/12 09:16:10;;;;;;;64.30;27.58;;;-0.90;99.90;;;;;;4977523;28;20031;-76
2024/01/12 09:18:36;;;;;;;66.43;28.70;;;-0.90;99.90;;;;;;4978205;28;20065;-65
2024/01/12 09:21:02;;;;;;;59.40;27.33;;;-0.90;99.90;;;;;;4977905;28;20027;-65
2024/01/12 09:23:28;;;;;;;67.40;29.00;;;-0.90;99.90;;;;;;4977467;28;20137;-65
2024/01/12 09:25:54;;;;;;;63.00;26.65;;;-0.90;99.90;;;;;;4976508;28;20479;-65
2024/01/12 09:28:20;;;;;;;65.43;28.15;;;-0.80;99.90;;;;;;4959698;28;20031;-64
2024/01/12 09:30:49;;;;;;;72.63;29.77;;;-0.80;99.90;;;;;;4976983;28;20030;-65
2024/01/12 09:33:15;;;;;;;68.10;27.77;;;-0.80;99.90;;;;;;4977860;28;20051;-68
2024/01/12 09:35:41;;;;;;;70.28;29.42;;;-0.80;99.90;;;;;;4977602;28;20031;-64
2024/01/12 09:38:07;;;;;;;65.45;28.63;;;-0.70;99.90;;;;;;4976218;28;20118;-65
2024/01/12 09:40:35;;;;;;;63.15;27.98;;;-0.70;99.90;;;;;;4976430;28;20147;-65
2024/01/12 09:43:01;;;;;;;66.70;28.73;;;-0.70;99.90;;;;;;4958617;28;20486;-66
2024/01/12 09:45:28;;;;;;;61.83;26.70;;;-0.60;99.90;;;;;;4958868;28;20113;-65
2024/01/12 09:47:54;;;;;;;65.88;27.35;;;-0.60;99.90;;;;;;4975939;28;20030;-65
2024/01/12 09:50:24;;;;;;;66.03;27.55;;;-0.60;99.90;;;;;;4976259;28;20026;-65
2024/01/12 09:52:50;;;;;;;64.30;27.02;;;-0.50;99.90;;;;;;4958708;28;20419;-65
2024/01/12 09:55:16;;;;;;;62.45;27.45;;;-0.40;99.90;;;;;;4958719;28;20027;-65
2024/01/12 09:57:44;;;;;;;62.25;27.73;;;-0.40;99.90;;;;;;4975838;28;20469;-65
2024/01/12 10:00:13;;;;;;;60.35;25.67;;;-0.40;99.90;;;;;;4958439;28;20027;-65
2024/01/12 10:02:39;;;;;;;59.38;26.15;;;-0.40;99.90;;;;;;4975674;28;20031;-65
2024/01/12 10:05:06;;;;;;;61.55;28.60;;;-0.40;99.90;;;;;;4958433;28;20145;-65
2024/01/12 10:07:32;;;;;;;57.78;26.17;;;-0.40;99.90;;;;;;4974903;28;20427;-65
2024/01/12 10:09:58;;;;;;;59.25;26.10;;;-0.40;99.90;;;;;;4975732;28;20031;-65
2024/01/12 10:12:23;;;;;;;62.72;26.02;;;-0.40;99.90;;;;;;4975939;28;20027;-65
2024/01/12 10:15:02;;;;;;;59.97;26.42;;;-0.40;99.90;;;;;;4975884;28;20034;-65
2024/01/12 10:17:29;;;;;;;;;;;-0.40;99.90;;;;;;4959612;28;20474;-65
2024/01/12 10:19:55;;;;;;;60.47;24.60;;;-0.30;99.90;;;;;;4958890;28;19917;-65
2024/01/12 10:22:21;;;;;;;52.25;24.05;;;-0.30;99.90;;;;;;4975964;28;20077;-65
2024/01/12 10:24:55;;;;;;;65.32;26.25;;;-0.30;99.90;;;;;;4976240;28;20466;-65
2024/01/12 10:27:21;;;;;;;60.72;25.10;;;-0.30;99.90;;;;;;4976306;28;20078;-65
2024/01/12 10:29:46;;;;;;;66.45;26.67;;;-0.30;99.90;;;;;;4976411;28;20022;-65
2024/01/12 10:32:12;;;;;;;60.08;26.40;;;-0.20;99.90;;;;;;4976596;28;20024;-65
2024/01/12 10:34:39;;;;;;;63.58;27.63;;;-0.10;99.90;;;;;;4975436;28;20046;-66
2024/01/12 10:37:07;;;;;;;56.38;24.73;;;-0.10;99.90;;;;;;4975520;28;20027;-65
2024/01/12 10:39:35;;;;;;;60.38;25.58;;;-0.10;99.90;;;;;;4975074;28;20379;-65
2024/01/12 10:42:05;;;;;;;57.75;25.30;;;0.00;99.90;;;;;;4958169;28;20026;-65
2024/01/12 10:44:33;;;;;;;58.45;24.92;;;0.00;99.90;;;;;;4975585;28;20034;-65
2024/01/12 10:47:05;;;;;;;56.08;26.17;;;0.00;99.90;;;;;;4975926;28;20074;-65
2024/01/12 10:49:42;;;;;;;58.45;24.85;;;0.00;99.90;;;;;;4975680;28;20098;-65
2024/01/12 10:52:21;;;;;;;60.40;24.20;;;0.00;99.90;;;;;;4975497;28;20026;-65
2024/01/12 10:54:56;;;;;;;56.58;24.88;;;0.00;99.90;;;;;;4975049;28;20114;-65
2024/01/12 10:57:22;;;;;;;58.45;25.60;;;0.00;99.90;;;;;;4974749;28;20031;-65
2024/01/12 10:59:49;;;;;;;58.88;25.95;;;0.00;99.90;;;;;;4974972;28;20030;-65
2024/01/12 11:02:15;;;;;;;60.05;27.13;;;0.10;99.90;;;;;;4975209;28;20057;-65
2024/01/12 11:04:44;;;;;;;64.22;25.15;;;0.10;99.90;;;;;;4975094;28;20050;-65
2024/01/12 11:07:10;;;;;;;58.65;26.95;;;0.20;99.90;;;;;;4974691;28;20038;-65
2024/01/12 11:09:35;;;;;;;57.65;26.35;;;0.20;99.90;;;;;;4975234;28;20467;-65
2024/01/12 11:12:06;;;;;;;57.08;24.98;;;0.30;99.90;;;;;;4957551;28;20038;-65
2024/01/12 11:14:32;;;;;;;62.88;24.80;;;0.40;99.90;;;;;;4974859;28;20125;-65
2024/01/12 11:16:58;;;;;;;56.45;24.83;;;0.40;99.90;;;;;;4957512;28;20463;-65
2024/01/12 11:19:25;;;;;;;56.40;24.27;;;0.40;99.90;;;;;;4974895;28;20034;-65
2024/01/12 11:22:08;;;;;;;61.33;26.55;;;0.40;99.90;;;;;;4978768;28;20486;-65
2024/01/12 11:24:42;;;;;;;56.15;24.95;;;0.30;99.90;;;;;;4978840;28;20039;-65
2024/01/12 11:27:11;;;;;;;56.17;24.20;;;0.30;99.90;;;;;;4978669;28;20058;-65
2024/01/12 11:29:39;;;;;;;57.03;25.05;;;0.30;99.90;;;;;;4978492;28;20109;-65
2024/01/12 11:32:05;;;;;;;58.63;25.00;;;0.40;99.90;;;;;;4978327;28;20431;-65
2024/01/12 11:34:35;;;;;;;57.53;25.27;;;0.40;99.90;;;;;;4978212;28;20356;-65
2024/01/12 11:37:02;;;;;;;54.70;24.13;;;0.40;99.90;;;;;;4978411;28;20086;-65
2024/01/12 11:39:36;;;;;;;50.30;23.15;;;0.50;99.90;;;;;;4978301;28;20054;-65
2024/01/12 11:42:03;;;;;;;55.80;24.98;;;0.50;99.90;;;;;;4961317;28;20031;-65
2024/01/12 11:44:31;;;;;;;53.33;24.48;;;0.50;99.90;;;;;;4978030;28;20023;-65
2024/01/12 11:46:59;;;;;;;57.07;24.57;;;0.60;99.90;;;;;;4978031;28;20023;-65
2024/01/12 11:49:25;;;;;;;53.90;22.98;;;0.70;99.90;;;;;;4977981;28;20269;-66
2024/01/12 11:52:01;;;;;;;50.30;22.38;;;0.60;99.90;;;;;;4977803;28;20375;-65
2024/01/12 11:54:27;;;;;;;55.47;25.10;;;0.80;99.90;;;;;;4960676;28;20039;-65
2024/01/12 11:56:53;;;;;;;49.90;22.85;;;0.90;99.90;;;;;;4977938;28;20023;-65
2024/01/12 11:59:18;;;;;;;46.25;21.10;;;1.00;99.90;;;;;;4977763;28;20106;-65
2024/01/12 12:01:44;;;;;;;52.30;22.63;;;1.00;99.90;;;;;;4960653;28;20109;-65
2024/01/12 12:04:09;;;;;;;53.58;21.83;;;1.00;99.90;;;;;;4960391;28;20561;-65
2024/01/12 12:06:35;;;;;;;50.72;22.55;;;0.90;99.90;;;;;;4977613;28;20166;-65
2024/01/12 12:09:01;;;;;;;49.55;22.33;;;1.00;99.90;;;;;;4960571;28;20033;-66
2024/01/12 12:11:26;;;;;;;50.85;22.90;;;1.00;99.90;;;;;;4977717;28;20030;-65
2024/01/12 12:13:53;;;;;;;52.00;23.17;;;1.00;99.90;;;;;;4977765;28;20034;-65
2024/01/12 12:16:19;;;;;;;55.15;23.83;;;1.00;99.90;;;;;;4977808;28;20038;-65
2024/01/12 12:18:44;;;;;;;48.55;21.95;;;1.00;99.90;;;;;;4977732;28;20022;-66
2024/01/12 12:21:11;;;;;;;47.45;22.02;;;0.90;99.90;;;;;;4977741;28;20073;-65
2024/01/12 12:23:40;;;;;;;49.88;21.80;;;0.80;99.90;;;;;;4977563;28;20027;-65